sensor_id;sensor_type;location;lat;lon;timestamp;temperature;humidity
69731;SHT31;56996;48.138;11.538;2024-02-26T00:00:40;5.05;66.33
69731;SHT31;56996;48.138;11.538;2024-02-26T00:03:07;5.05;66.28
69731;SHT31;56996;48.138;11.538;2024-02-26T00:05:34;5.07;66.13
69731;SHT31;56996;48.138;11.538;2024-02-26T00:08:01;5.08;66.00
69731;SHT31;56996;48.138;11.538;2024-02-26T00:10:31;5.08;65.93
69731;SHT31;56996;48.138;11.538;2024-02-26T00:12:57;5.05;65.83
69731;SHT31;56996;48.138;11.538;2024-02-26T00:15:24;5.06;65.66
69731;SHT31;56996;48.138;11.538;2024-02-26T00:17:51;5.05;65.56
69731;SHT31;56996;48.138;11.538;2024-02-26T00:20:18;5.06;65.41
69731;SHT31;56996;48.138;11.538;2024-02-26T00:22:45;5.06;65.32
69731;SHT31;56996;48.138;11.538;2024-02-26T00:25:12;5.06;65.23
69731;SHT31;56996;48.138;11.538;2024-02-26T00:27:39;5.05;65.15
69731;SHT31;56996;48.138;11.538;2024-02-26T00:30:08;5.04;64.93
69731;SHT31;56996;48.138;11.538;2024-02-26T00:32:35;5.04;64.71
69731;SHT31;56996;48.138;11.538;2024-02-26T00:35:02;5.03;64.63
69731;SHT31;56996;48.138;11.538;2024-02-26T00:37:29;5.02;64.58
69731;SHT31;56996;48.138;11.538;2024-02-26T00:39:56;5.01;64.54
69731;SHT31;56996;48.138;11.538;2024-02-26T00:42:22;4.96;64.65
69731;SHT31;56996;48.138;11.538;2024-02-26T00:44:49;4.89;64.79
69731;SHT31;56996;48.138;11.538;2024-02-26T00:47:16;4.88;64.76
69731;SHT31;56996;48.138;11.538;2024-02-26T00:49:43;4.91;64.58
69731;SHT31;56996;48.138;11.538;2024-02-26T00:52:09;4.92;64.51
69731;SHT31;56996;48.138;11.538;2024-02-26T00:54:36;4.93;64.43
69731;SHT31;56996;48.138;11.538;2024-02-26T00:57:03;4.94;64.40
69731;SHT31;56996;48.138;11.538;2024-02-26T00:59:30;4.91;64.39
69731;SHT31;56996;48.138;11.538;2024-02-26T01:01:56;4.93;64.37
69731;SHT31;56996;48.138;11.538;2024-02-26T01:04:25;4.92;64.30
69731;SHT31;56996;48.138;11.538;2024-02-26T01:06:51;4.91;64.30
69731;SHT31;56996;48.138;11.538;2024-02-26T01:09:18;4.88;64.30
69731;SHT31;56996;48.138;11.538;2024-02-26T01:11:45;4.87;64.30
69731;SHT31;56996;48.138;11.538;2024-02-26T01:14:13;4.86;64.30
69731;SHT31;56996;48.138;11.538;2024-02-26T01:16:41;4.85;64.40
69731;SHT31;56996;48.138;11.538;2024-02-26T01:19:07;4.82;64.50
69731;SHT31;56996;48.138;11.538;2024-02-26T01:21:34;4.82;64.61
69731;SHT31;56996;48.138;11.538;2024-02-26T01:24:01;4.79;64.60
69731;SHT31;56996;48.138;11.538;2024-02-26T01:26:28;4.77;64.60
69731;SHT31;56996;48.138;11.538;2024-02-26T01:28:55;4.74;64.61
69731;SHT31;56996;48.138;11.538;2024-02-26T01:31:22;4.72;64.69
69731;SHT31;56996;48.138;11.538;2024-02-26T01:33:48;4.70;64.79
69731;SHT31;56996;48.138;11.538;2024-02-26T01:36:16;4.69;64.84
69731;SHT31;56996;48.138;11.538;2024-02-26T01:38:42;4.68;64.78
69731;SHT31;56996;48.138;11.538;2024-02-26T01:41:10;4.67;64.76
69731;SHT31;56996;48.138;11.538;2024-02-26T01:43:36;4.66;64.73
69731;SHT31;56996;48.138;11.538;2024-02-26T01:46:03;4.62;64.71
69731;SHT31;56996;48.138;11.538;2024-02-26T01:48:30;4.62;64.70
69731;SHT31;56996;48.138;11.538;2024-02-26T01:50:57;4.61;64.67
69731;SHT31;56996;48.138;11.538;2024-02-26T01:53:24;4.59;64.69
69731;SHT31;56996;48.138;11.538;2024-02-26T01:55:51;4.58;64.66
69731;SHT31;56996;48.138;11.538;2024-02-26T01:58:18;4.58;64.63
69731;SHT31;56996;48.138;11.538;2024-02-26T02:00:44;4.57;64.68
69731;SHT31;56996;48.138;11.538;2024-02-26T02:03:11;4.58;64.69
69731;SHT31;56996;48.138;11.538;2024-02-26T02:05:39;4.56;64.67
69731;SHT31;56996;48.138;11.538;2024-02-26T02:08:09;4.54;64.69
69731;SHT31;56996;48.138;11.538;2024-02-26T02:10:41;4.52;64.70
69731;SHT31;56996;48.138;11.538;2024-02-26T02:13:08;4.50;64.76
69731;SHT31;56996;48.138;11.538;2024-02-26T02:15:35;4.47;64.86
69731;SHT31;56996;48.138;11.538;2024-02-26T02:18:02;4.45;64.83
69731;SHT31;56996;48.138;11.538;2024-02-26T02:20:32;4.42;64.90
69731;SHT31;56996;48.138;11.538;2024-02-26T02:23:00;4.40;64.92
69731;SHT31;56996;48.138;11.538;2024-02-26T02:25:27;4.38;64.99
69731;SHT31;56996;48.138;11.538;2024-02-26T02:27:54;4.36;65.01
69731;SHT31;56996;48.138;11.538;2024-02-26T02:30:26;4.33;65.04
69731;SHT31;56996;48.138;11.538;2024-02-26T02:32:56;4.35;64.95
69731;SHT31;56996;48.138;11.538;2024-02-26T02:35:25;4.36;64.94
69731;SHT31;56996;48.138;11.538;2024-02-26T02:37:52;4.35;64.97
69731;SHT31;56996;48.138;11.538;2024-02-26T02:40:19;4.34;64.93
69731;SHT31;56996;48.138;11.538;2024-02-26T02:42:46;4.36;64.79
69731;SHT31;56996;48.138;11.538;2024-02-26T02:45:13;4.37;64.72
69731;SHT31;56996;48.138;11.538;2024-02-26T02:47:39;4.38;64.66
69731;SHT31;56996;48.138;11.538;2024-02-26T02:50:06;4.39;64.51
69731;SHT31;56996;48.138;11.538;2024-02-26T02:52:33;4.39;64.48
69731;SHT31;56996;48.138;11.538;2024-02-26T02:55:00;4.39;64.32
69731;SHT31;56996;48.138;11.538;2024-02-26T02:57:29;4.37;64.34
69731;SHT31;56996;48.138;11.538;2024-02-26T02:59:57;4.36;64.37
69731;SHT31;56996;48.138;11.538;2024-02-26T03:02:24;4.34;64.32
69731;SHT31;56996;48.138;11.538;2024-02-26T03:04:53;4.32;64.34
69731;SHT31;56996;48.138;11.538;2024-02-26T03:07:20;4.30;64.36
69731;SHT31;56996;48.138;11.538;2024-02-26T03:09:47;4.32;64.37
69731;SHT31;56996;48.138;11.538;2024-02-26T03:12:14;4.31;64.33
69731;SHT31;56996;48.138;11.538;2024-02-26T03:14:40;4.31;64.30
69731;SHT31;56996;48.138;11.538;2024-02-26T03:17:07;4.30;64.36
69731;SHT31;56996;48.138;11.538;2024-02-26T03:19:34;4.30;64.14
69731;SHT31;56996;48.138;11.538;2024-02-26T03:22:01;4.30;64.15
69731;SHT31;56996;48.138;11.538;2024-02-26T03:24:28;4.31;64.14
69731;SHT31;56996;48.138;11.538;2024-02-26T03:26:55;4.30;64.10
69731;SHT31;56996;48.138;11.538;2024-02-26T03:29:22;4.34;64.02
69731;SHT31;56996;48.138;11.538;2024-02-26T03:31:49;4.36;63.90
69731;SHT31;56996;48.138;11.538;2024-02-26T03:34:16;4.38;63.85
69731;SHT31;56996;48.138;11.538;2024-02-26T03:36:44;4.39;63.86
69731;SHT31;56996;48.138;11.538;2024-02-26T03:39:10;4.37;63.95
69731;SHT31;56996;48.138;11.538;2024-02-26T03:41:37;4.39;63.81
69731;SHT31;56996;48.138;11.538;2024-02-26T03:44:04;4.41;63.82
69731;SHT31;56996;48.138;11.538;2024-02-26T03:46:31;4.43;63.76
69731;SHT31;56996;48.138;11.538;2024-02-26T03:48:58;4.43;63.70
69731;SHT31;56996;48.138;11.538;2024-02-26T03:51:25;4.44;63.70
69731;SHT31;56996;48.138;11.538;2024-02-26T03:53:53;4.43;63.74
69731;SHT31;56996;48.138;11.538;2024-02-26T03:56:19;4.41;63.77
69731;SHT31;56996;48.138;11.538;2024-02-26T03:58:47;4.40;63.70
69731;SHT31;56996;48.138;11.538;2024-02-26T04:01:13;4.40;63.67
69731;SHT31;56996;48.138;11.538;2024-02-26T04:03:40;4.40;63.62
69731;SHT31;56996;48.138;11.538;2024-02-26T04:06:10;4.39;63.57
69731;SHT31;56996;48.138;11.538;2024-02-26T04:08:38;4.39;63.50
69731;SHT31;56996;48.138;11.538;2024-02-26T04:11:04;4.39;63.45
69731;SHT31;56996;48.138;11.538;2024-02-26T04:13:34;4.39;63.42
69731;SHT31;56996;48.138;11.538;2024-02-26T04:16:00;4.42;63.38
69731;SHT31;56996;48.138;11.538;2024-02-26T04:18:28;4.43;63.22
69731;SHT31;56996;48.138;11.538;2024-02-26T04:20:55;4.45;63.18
69731;SHT31;56996;48.138;11.538;2024-02-26T04:23:23;4.45;63.06
69731;SHT31;56996;48.138;11.538;2024-02-26T04:25:50;4.45;63.00
69731;SHT31;56996;48.138;11.538;2024-02-26T04:28:19;4.48;62.98
69731;SHT31;56996;48.138;11.538;2024-02-26T04:30:51;4.49;62.91
69731;SHT31;56996;48.138;11.538;2024-02-26T04:33:18;4.50;62.80
69731;SHT31;56996;48.138;11.538;2024-02-26T04:35:45;4.49;62.79
69731;SHT31;56996;48.138;11.538;2024-02-26T04:38:12;4.49;62.82
69731;SHT31;56996;48.138;11.538;2024-02-26T04:40:39;4.48;62.78
69731;SHT31;56996;48.138;11.538;2024-02-26T04:43:06;4.46;62.78
69731;SHT31;56996;48.138;11.538;2024-02-26T04:45:32;4.44;62.77
69731;SHT31;56996;48.138;11.538;2024-02-26T04:47:59;4.43;62.71
69731;SHT31;56996;48.138;11.538;2024-02-26T04:50:26;4.42;62.57
69731;SHT31;56996;48.138;11.538;2024-02-26T04:52:53;4.40;62.43
69731;SHT31;56996;48.138;11.538;2024-02-26T04:55:20;4.38;62.58
69731;SHT31;56996;48.138;11.538;2024-02-26T04:57:46;4.36;62.69
69731;SHT31;56996;48.138;11.538;2024-02-26T05:00:13;4.34;62.78
69731;SHT31;56996;48.138;11.538;2024-02-26T05:02:40;4.34;62.71
69731;SHT31;56996;48.138;11.538;2024-02-26T05:05:08;4.35;62.60
69731;SHT31;56996;48.138;11.538;2024-02-26T05:07:39;4.36;62.56
69731;SHT31;56996;48.138;11.538;2024-02-26T05:10:08;4.38;62.45
69731;SHT31;56996;48.138;11.538;2024-02-26T05:12:35;4.39;62.37
69731;SHT31;56996;48.138;11.538;2024-02-26T05:15:02;4.40;62.19
69731;SHT31;56996;48.138;11.538;2024-02-26T05:17:30;4.43;62.07
69731;SHT31;56996;48.138;11.538;2024-02-26T05:19:56;4.45;62.01
69731;SHT31;56996;48.138;11.538;2024-02-26T05:22:23;4.47;61.92
69731;SHT31;56996;48.138;11.538;2024-02-26T05:24:50;4.50;61.90
69731;SHT31;56996;48.138;11.538;2024-02-26T05:27:17;4.50;61.69
69731;SHT31;56996;48.138;11.538;2024-02-26T05:29:44;4.51;61.58
69731;SHT31;56996;48.138;11.538;2024-02-26T05:32:12;4.51;61.37
69731;SHT31;56996;48.138;11.538;2024-02-26T05:34:38;4.52;61.33
69731;SHT31;56996;48.138;11.538;2024-02-26T05:37:06;4.53;61.39
69731;SHT31;56996;48.138;11.538;2024-02-26T05:39:33;4.54;61.40
69731;SHT31;56996;48.138;11.538;2024-02-26T05:42:00;4.55;61.32
69731;SHT31;56996;48.138;11.538;2024-02-26T05:44:27;4.57;61.01
69731;SHT31;56996;48.138;11.538;2024-02-26T05:46:54;4.58;60.87
69731;SHT31;56996;48.138;11.538;2024-02-26T05:49:22;4.60;60.84
69731;SHT31;56996;48.138;11.538;2024-02-26T05:51:49;4.63;60.78
69731;SHT31;56996;48.138;11.538;2024-02-26T05:54:16;4.65;60.82
69731;SHT31;56996;48.138;11.538;2024-02-26T05:56:43;4.68;60.87
69731;SHT31;56996;48.138;11.538;2024-02-26T05:59:09;4.73;60.76
69731;SHT31;56996;48.138;11.538;2024-02-26T06:01:36;4.78;60.56
69731;SHT31;56996;48.138;11.538;2024-02-26T06:04:03;4.82;60.46
69731;SHT31;56996;48.138;11.538;2024-02-26T06:06:30;4.86;60.54
69731;SHT31;56996;48.138;11.538;2024-02-26T06:08:56;4.89;60.52
69731;SHT31;56996;48.138;11.538;2024-02-26T06:11:23;4.93;60.32
69731;SHT31;56996;48.138;11.538;2024-02-26T06:13:50;4.96;60.23
69731;SHT31;56996;48.138;11.538;2024-02-26T06:16:17;4.99;60.19
69731;SHT31;56996;48.138;11.538;2024-02-26T06:18:44;5.03;60.20
69731;SHT31;56996;48.138;11.538;2024-02-26T06:21:11;5.10;60.04
69731;SHT31;56996;48.138;11.538;2024-02-26T06:23:38;5.14;59.83
69731;SHT31;56996;48.138;11.538;2024-02-26T06:26:06;5.18;59.89
69731;SHT31;56996;48.138;11.538;2024-02-26T06:28:33;5.23;59.92
69731;SHT31;56996;48.138;11.538;2024-02-26T06:31:02;5.28;59.75
69731;SHT31;56996;48.138;11.538;2024-02-26T06:33:29;5.33;59.53
69731;SHT31;56996;48.138;11.538;2024-02-26T06:35:56;5.38;59.48
69731;SHT31;56996;48.138;11.538;2024-02-26T06:38:22;5.43;59.24
69731;SHT31;56996;48.138;11.538;2024-02-26T06:40:49;5.50;59.17
69731;SHT31;56996;48.138;11.538;2024-02-26T06:43:16;5.56;58.95
69731;SHT31;56996;48.138;11.538;2024-02-26T06:45:42;5.63;58.76
69731;SHT31;56996;48.138;11.538;2024-02-26T06:48:09;5.69;58.39
69731;SHT31;56996;48.138;11.538;2024-02-26T06:50:36;5.76;57.99
69731;SHT31;56996;48.138;11.538;2024-02-26T06:53:03;5.82;57.69
69731;SHT31;56996;48.138;11.538;2024-02-26T06:55:30;5.91;57.75
69731;SHT31;56996;48.138;11.538;2024-02-26T06:57:57;6.02;57.35
69731;SHT31;56996;48.138;11.538;2024-02-26T07:00:23;6.09;57.13
69731;SHT31;56996;48.138;11.538;2024-02-26T07:02:50;6.13;56.96
69731;SHT31;56996;48.138;11.538;2024-02-26T07:05:17;6.19;56.98
69731;SHT31;56996;48.138;11.538;2024-02-26T07:07:44;6.26;56.84
69731;SHT31;56996;48.138;11.538;2024-02-26T07:10:11;6.36;56.54
69731;SHT31;56996;48.138;11.538;2024-02-26T07:12:39;6.44;56.22
69731;SHT31;56996;48.138;11.538;2024-02-26T07:15:06;6.48;55.89
69731;SHT31;56996;48.138;11.538;2024-02-26T07:17:34;6.52;55.62
69731;SHT31;56996;48.138;11.538;2024-02-26T07:20:01;6.60;55.31
69731;SHT31;56996;48.138;11.538;2024-02-26T07:22:35;6.66;55.07
69731;SHT31;56996;48.138;11.538;2024-02-26T07:25:02;6.71;54.95
69731;SHT31;56996;48.138;11.538;2024-02-26T07:27:29;6.80;54.75
69731;SHT31;56996;48.138;11.538;2024-02-26T07:29:56;6.89;54.69
69731;SHT31;56996;48.138;11.538;2024-02-26T07:32:23;6.96;54.34
69731;SHT31;56996;48.138;11.538;2024-02-26T07:34:50;7.06;54.23
69731;SHT31;56996;48.138;11.538;2024-02-26T07:37:17;7.22;54.09
69731;SHT31;56996;48.138;11.538;2024-02-26T07:39:43;7.38;53.79
69731;SHT31;56996;48.138;11.538;2024-02-26T07:42:10;7.55;53.82
69731;SHT31;56996;48.138;11.538;2024-02-26T07:44:37;7.71;53.26
69731;SHT31;56996;48.138;11.538;2024-02-26T07:47:04;7.82;52.79
69731;SHT31;56996;48.138;11.538;2024-02-26T07:49:31;7.91;52.71
69731;SHT31;56996;48.138;11.538;2024-02-26T07:52:00;7.97;52.69
69731;SHT31;56996;48.138;11.538;2024-02-26T07:54:27;8.00;52.92
69731;SHT31;56996;48.138;11.538;2024-02-26T07:56:54;8.06;52.79
69731;SHT31;56996;48.138;11.538;2024-02-26T07:59:20;8.09;52.54
69731;SHT31;56996;48.138;11.538;2024-02-26T08:01:51;8.11;52.33
69731;SHT31;56996;48.138;11.538;2024-02-26T08:04:23;8.10;52.28
69731;SHT31;56996;48.138;11.538;2024-02-26T08:06:50;8.12;52.37
69731;SHT31;56996;48.138;11.538;2024-02-26T08:09:17;8.15;52.30
69731;SHT31;56996;48.138;11.538;2024-02-26T08:11:44;8.16;52.06
69731;SHT31;56996;48.138;11.538;2024-02-26T08:14:11;8.18;51.89
69731;SHT31;56996;48.138;11.538;2024-02-26T08:16:38;8.26;51.99
69731;SHT31;56996;48.138;11.538;2024-02-26T08:19:04;8.42;52.61
69731;SHT31;56996;48.138;11.538;2024-02-26T08:21:31;8.63;52.26
69731;SHT31;56996;48.138;11.538;2024-02-26T08:23:58;8.87;51.19
69731;SHT31;56996;48.138;11.538;2024-02-26T08:26:25;9.14;50.44
69731;SHT31;56996;48.138;11.538;2024-02-26T08:28:52;9.35;49.80
69731;SHT31;56996;48.138;11.538;2024-02-26T08:31:20;9.53;50.00
69731;SHT31;56996;48.138;11.538;2024-02-26T08:33:49;9.75;49.68
69731;SHT31;56996;48.138;11.538;2024-02-26T08:36:16;9.91;49.18
69731;SHT31;56996;48.138;11.538;2024-02-26T08:38:43;10.02;48.81
69731;SHT31;56996;48.138;11.538;2024-02-26T08:41:10;10.11;48.34
69731;SHT31;56996;48.138;11.538;2024-02-26T08:43:36;10.19;48.20
69731;SHT31;56996;48.138;11.538;2024-02-26T08:46:03;10.20;47.81
69731;SHT31;56996;48.138;11.538;2024-02-26T08:48:30;10.13;47.73
69731;SHT31;56996;48.138;11.538;2024-02-26T08:50:57;10.07;47.67
69731;SHT31;56996;48.138;11.538;2024-02-26T08:53:24;10.25;47.41
69731;SHT31;56996;48.138;11.538;2024-02-26T08:56:06;10.34;47.40
69731;SHT31;56996;48.138;11.538;2024-02-26T08:58:33;10.27;47.36
69731;SHT31;56996;48.138;11.538;2024-02-26T09:01:00;10.25;47.72
69731;SHT31;56996;48.138;11.538;2024-02-26T09:03:27;10.27;47.92
69731;SHT31;56996;48.138;11.538;2024-02-26T09:05:54;10.29;48.09
69731;SHT31;56996;48.138;11.538;2024-02-26T09:08:23;10.27;48.39
69731;SHT31;56996;48.138;11.538;2024-02-26T09:10:50;10.27;48.81
69731;SHT31;56996;48.138;11.538;2024-02-26T09:13:16;10.20;48.90
69731;SHT31;56996;48.138;11.538;2024-02-26T09:15:45;10.20;48.90
69731;SHT31;56996;48.138;11.538;2024-02-26T09:18:12;10.18;48.93
69731;SHT31;56996;48.138;11.538;2024-02-26T09:20:39;10.26;49.20
69731;SHT31;56996;48.138;11.538;2024-02-26T09:23:06;10.45;49.28
69731;SHT31;56996;48.138;11.538;2024-02-26T09:25:33;10.66;49.94
69731;SHT31;56996;48.138;11.538;2024-02-26T09:28:00;10.82;49.51
69731;SHT31;56996;48.138;11.538;2024-02-26T09:30:27;10.94;48.68
69731;SHT31;56996;48.138;11.538;2024-02-26T09:32:54;10.96;48.11
69731;SHT31;56996;48.138;11.538;2024-02-26T09:35:21;11.05;47.53
69731;SHT31;56996;48.138;11.538;2024-02-26T09:37:47;11.08;46.98
69731;SHT31;56996;48.138;11.538;2024-02-26T09:40:16;11.31;47.03
69731;SHT31;56996;48.138;11.538;2024-02-26T09:42:46;11.63;45.80
69731;SHT31;56996;48.138;11.538;2024-02-26T09:45:17;11.90;45.45
69731;SHT31;56996;48.138;11.538;2024-02-26T09:47:47;12.32;44.80
69731;SHT31;56996;48.138;11.538;2024-02-26T09:50:16;12.60;43.48
69731;SHT31;56996;48.138;11.538;2024-02-26T09:52:44;12.89;43.15
69731;SHT31;56996;48.138;11.538;2024-02-26T09:55:11;13.02;42.60
69731;SHT31;56996;48.138;11.538;2024-02-26T09:57:38;13.09;42.79
69731;SHT31;56996;48.138;11.538;2024-02-26T10:00:15;13.35;41.73
69731;SHT31;56996;48.138;11.538;2024-02-26T10:02:49;13.58;41.11
69731;SHT31;56996;48.138;11.538;2024-02-26T10:05:17;13.79;41.08
69731;SHT31;56996;48.138;11.538;2024-02-26T10:07:45;13.94;41.00
69731;SHT31;56996;48.138;11.538;2024-02-26T10:10:13;13.97;40.81
69731;SHT31;56996;48.138;11.538;2024-02-26T10:12:41;13.82;40.55
69731;SHT31;56996;48.138;11.538;2024-02-26T10:15:08;13.64;41.96
69731;SHT31;56996;48.138;11.538;2024-02-26T10:17:35;13.59;42.34
69731;SHT31;56996;48.138;11.538;2024-02-26T10:20:14;13.52;42.21
69731;SHT31;56996;48.138;11.538;2024-02-26T10:22:50;13.35;42.13
69731;SHT31;56996;48.138;11.538;2024-02-26T10:25:18;13.30;42.21
69731;SHT31;56996;48.138;11.538;2024-02-26T10:27:45;13.20;41.11
69731;SHT31;56996;48.138;11.538;2024-02-26T10:30:17;13.15;41.50
69731;SHT31;56996;48.138;11.538;2024-02-26T10:32:48;13.17;41.20
69731;SHT31;56996;48.138;11.538;2024-02-26T10:35:16;13.24;41.03
69731;SHT31;56996;48.138;11.538;2024-02-26T10:37:47;13.24;40.02
69731;SHT31;56996;48.138;11.538;2024-02-26T10:40:16;13.18;40.55
69731;SHT31;56996;48.138;11.538;2024-02-26T10:42:43;13.23;40.98
69731;SHT31;56996;48.138;11.538;2024-02-26T10:45:12;13.13;40.63
69731;SHT31;56996;48.138;11.538;2024-02-26T10:47:39;13.03;40.74
69731;SHT31;56996;48.138;11.538;2024-02-26T10:50:08;12.98;40.96
69731;SHT31;56996;48.138;11.538;2024-02-26T10:52:36;12.98;41.02
69731;SHT31;56996;48.138;11.538;2024-02-26T10:55:04;13.13;41.09
69731;SHT31;56996;48.138;11.538;2024-02-26T10:57:35;13.25;40.74
69731;SHT31;56996;48.138;11.538;2024-02-26T11:00:06;13.35;40.89
69731;SHT31;56996;48.138;11.538;2024-02-26T11:02:37;13.56;40.79
69731;SHT31;56996;48.138;11.538;2024-02-26T11:05:05;13.77;40.29
69731;SHT31;56996;48.138;11.538;2024-02-26T11:07:36;13.92;39.71
69731;SHT31;56996;48.138;11.538;2024-02-26T11:10:04;14.07;39.55
69731;SHT31;56996;48.138;11.538;2024-02-26T11:12:32;14.19;38.84
69731;SHT31;56996;48.138;11.538;2024-02-26T11:15:03;14.28;38.76
69731;SHT31;56996;48.138;11.538;2024-02-26T11:17:31;14.38;37.99
69731;SHT31;56996;48.138;11.538;2024-02-26T11:20:00;14.45;37.86
69731;SHT31;56996;48.138;11.538;2024-02-26T11:22:32;14.49;37.80
69731;SHT31;56996;48.138;11.538;2024-02-26T11:24:59;14.40;37.29
69731;SHT31;56996;48.138;11.538;2024-02-26T11:27:29;14.25;37.84
69731;SHT31;56996;48.138;11.538;2024-02-26T11:30:01;14.32;38.35
69731;SHT31;56996;48.138;11.538;2024-02-26T11:32:29;14.43;38.32
69731;SHT31;56996;48.138;11.538;2024-02-26T11:35:00;14.53;38.17
69731;SHT31;56996;48.138;11.538;2024-02-26T11:37:27;14.55;37.86
69731;SHT31;56996;48.138;11.538;2024-02-26T11:39:54;14.69;37.91
69731;SHT31;56996;48.138;11.538;2024-02-26T11:42:24;14.83;37.58
69731;SHT31;56996;48.138;11.538;2024-02-26T11:44:52;14.89;37.26
69731;SHT31;56996;48.138;11.538;2024-02-26T11:47:19;14.77;36.99
69731;SHT31;56996;48.138;11.538;2024-02-26T11:49:48;14.69;37.35
69731;SHT31;56996;48.138;11.538;2024-02-26T11:52:16;14.78;37.22
69731;SHT31;56996;48.138;11.538;2024-02-26T11:54:47;14.74;36.40
69731;SHT31;56996;48.138;11.538;2024-02-26T11:57:27;14.75;36.69
69731;SHT31;56996;48.138;11.538;2024-02-26T12:02:37;15.06;36.22
69731;SHT31;56996;48.138;11.538;2024-02-26T12:07:54;15.19;36.05
69731;SHT31;56996;48.138;11.538;2024-02-26T12:10:33;15.20;35.67
69731;SHT31;56996;48.138;11.538;2024-02-26T12:13:10;15.00;35.71
69731;SHT31;56996;48.138;11.538;2024-02-26T12:15:54;14.83;35.54
69731;SHT31;56996;48.138;11.538;2024-02-26T12:18:24;14.71;36.07
69731;SHT31;56996;48.138;11.538;2024-02-26T12:21:00;14.71;36.41
69731;SHT31;56996;48.138;11.538;2024-02-26T12:23:31;14.74;35.82
69731;SHT31;56996;48.138;11.538;2024-02-26T12:25:58;14.64;36.13
69731;SHT31;56996;48.138;11.538;2024-02-26T12:28:30;14.61;36.27
69731;SHT31;56996;48.138;11.538;2024-02-26T12:30:57;14.59;36.17
69731;SHT31;56996;48.138;11.538;2024-02-26T12:33:26;14.59;36.10
69731;SHT31;56996;48.138;11.538;2024-02-26T12:35:55;14.69;35.92
69731;SHT31;56996;48.138;11.538;2024-02-26T12:38:22;14.77;35.84
69731;SHT31;56996;48.138;11.538;2024-02-26T12:40:49;14.77;35.66
69731;SHT31;56996;48.138;11.538;2024-02-26T12:43:16;14.67;35.71
69731;SHT31;56996;48.138;11.538;2024-02-26T12:45:43;14.52;35.73
69731;SHT31;56996;48.138;11.538;2024-02-26T12:48:14;14.41;35.57
69731;SHT31;56996;48.138;11.538;2024-02-26T12:50:44;14.27;35.85
69731;SHT31;56996;48.138;11.538;2024-02-26T12:53:14;14.26;35.87
69731;SHT31;56996;48.138;11.538;2024-02-26T12:55:41;14.33;35.75
69731;SHT31;56996;48.138;11.538;2024-02-26T12:58:09;14.48;35.99
69731;SHT31;56996;48.138;11.538;2024-02-26T13:00:36;14.71;35.72
69731;SHT31;56996;48.138;11.538;2024-02-26T13:03:03;14.91;35.48
69731;SHT31;56996;48.138;11.538;2024-02-26T13:05:31;14.99;35.23
69731;SHT31;56996;48.138;11.538;2024-02-26T13:07:58;15.02;34.99
69731;SHT31;56996;48.138;11.538;2024-02-26T13:10:25;15.06;34.84
69731;SHT31;56996;48.138;11.538;2024-02-26T13:12:52;15.03;35.23
69731;SHT31;56996;48.138;11.538;2024-02-26T13:15:20;14.95;34.76
69731;SHT31;56996;48.138;11.538;2024-02-26T13:17:49;14.91;34.42
69731;SHT31;56996;48.138;11.538;2024-02-26T13:20:29;14.83;34.58
69731;SHT31;56996;48.138;11.538;2024-02-26T13:23:04;14.75;35.71
69731;SHT31;56996;48.138;11.538;2024-02-26T13:25:33;14.84;35.20
69731;SHT31;56996;48.138;11.538;2024-02-26T13:28:06;14.80;34.01
69731;SHT31;56996;48.138;11.538;2024-02-26T13:30:35;14.76;34.70
69731;SHT31;56996;48.138;11.538;2024-02-26T13:33:07;14.85;35.86
69731;SHT31;56996;48.138;11.538;2024-02-26T13:35:36;14.88;36.48
69731;SHT31;56996;48.138;11.538;2024-02-26T13:38:03;14.77;36.60
69731;SHT31;56996;48.138;11.538;2024-02-26T13:40:30;14.57;37.27
69731;SHT31;56996;48.138;11.538;2024-02-26T13:42:56;14.47;37.18
69731;SHT31;56996;48.138;11.538;2024-02-26T13:45:23;14.42;37.40
69731;SHT31;56996;48.138;11.538;2024-02-26T13:47:50;14.30;36.99
69731;SHT31;56996;48.138;11.538;2024-02-26T13:50:17;14.20;36.85
69731;SHT31;56996;48.138;11.538;2024-02-26T13:52:47;14.12;36.17
69731;SHT31;56996;48.138;11.538;2024-02-26T13:55:19;14.03;35.86
69731;SHT31;56996;48.138;11.538;2024-02-26T13:57:47;14.01;35.57
69731;SHT31;56996;48.138;11.538;2024-02-26T14:00:14;13.99;35.44
69731;SHT31;56996;48.138;11.538;2024-02-26T14:02:41;13.95;35.42
69731;SHT31;56996;48.138;11.538;2024-02-26T14:05:08;13.89;34.56
69731;SHT31;56996;48.138;11.538;2024-02-26T14:07:35;13.80;34.38
69731;SHT31;56996;48.138;11.538;2024-02-26T14:10:02;13.77;33.92
69731;SHT31;56996;48.138;11.538;2024-02-26T14:12:29;13.75;34.24
69731;SHT31;56996;48.138;11.538;2024-02-26T14:14:56;13.79;34.65
69731;SHT31;56996;48.138;11.538;2024-02-26T14:17:25;13.79;34.68
69731;SHT31;56996;48.138;11.538;2024-02-26T14:19:52;13.73;35.00
69731;SHT31;56996;48.138;11.538;2024-02-26T14:22:19;13.70;35.07
69731;SHT31;56996;48.138;11.538;2024-02-26T14:24:46;13.67;35.56
69731;SHT31;56996;48.138;11.538;2024-02-26T14:27:13;13.67;35.93
69731;SHT31;56996;48.138;11.538;2024-02-26T14:29:43;13.62;36.62
69731;SHT31;56996;48.138;11.538;2024-02-26T14:32:10;13.67;37.14
69731;SHT31;56996;48.138;11.538;2024-02-26T14:34:38;13.69;37.43
69731;SHT31;56996;48.138;11.538;2024-02-26T14:37:05;13.67;38.08
69731;SHT31;56996;48.138;11.538;2024-02-26T14:39:32;13.71;38.64
69731;SHT31;56996;48.138;11.538;2024-02-26T14:42:00;13.70;39.21
69731;SHT31;56996;48.138;11.538;2024-02-26T14:44:27;13.65;39.86
69731;SHT31;56996;48.138;11.538;2024-02-26T14:46:54;13.62;40.40
69731;SHT31;56996;48.138;11.538;2024-02-26T14:49:21;13.57;40.86
69731;SHT31;56996;48.138;11.538;2024-02-26T14:51:48;13.51;40.94
69731;SHT31;56996;48.138;11.538;2024-02-26T14:54:15;13.44;41.09
69731;SHT31;56996;48.138;11.538;2024-02-26T14:56:42;13.35;41.33
69731;SHT31;56996;48.138;11.538;2024-02-26T14:59:09;13.29;41.93
69731;SHT31;56996;48.138;11.538;2024-02-26T15:01:35;13.23;42.11
69731;SHT31;56996;48.138;11.538;2024-02-26T15:04:02;13.14;42.64
69731;SHT31;56996;48.138;11.538;2024-02-26T15:06:30;13.03;43.34
69731;SHT31;56996;48.138;11.538;2024-02-26T15:08:57;12.94;43.55
69731;SHT31;56996;48.138;11.538;2024-02-26T15:11:23;12.87;43.68
69731;SHT31;56996;48.138;11.538;2024-02-26T15:13:51;12.75;43.41
69731;SHT31;56996;48.138;11.538;2024-02-26T15:16:19;12.68;43.59
69731;SHT31;56996;48.138;11.538;2024-02-26T15:18:49;12.57;44.20
69731;SHT31;56996;48.138;11.538;2024-02-26T15:21:16;12.50;44.41
69731;SHT31;56996;48.138;11.538;2024-02-26T15:23:43;12.48;44.57
69731;SHT31;56996;48.138;11.538;2024-02-26T15:26:30;12.51;44.79
69731;SHT31;56996;48.138;11.538;2024-02-26T15:28:57;12.46;44.56
69731;SHT31;56996;48.138;11.538;2024-02-26T15:31:23;12.40;44.75
69731;SHT31;56996;48.138;11.538;2024-02-26T15:33:50;12.33;44.81